sensor_id;sensor_type;location;lat;lon;timestamp;P1;durP1;ratioP1;P2;durP2;ratioP2
71296;SDS011;59082;50.658;4.608;2023-03-23T00:01:06;3.72;;;2.78;;
71296;SDS011;59082;50.658;4.608;2023-03-23T00:03:35;3.58;;;2.60;;
71296;SDS011;59082;50.658;4.608;2023-03-23T00:06:01;3.50;;;2.85;;
71296;SDS011;59082;50.658;4.608;2023-03-23T00:08:32;6.07;;;3.50;;
71296;SDS011;59082;50.658;4.608;2023-03-23T00:11:03;4.03;;;3.10;;
71296;SDS011;59082;50.658;4.608;2023-03-23T00:13:32;4.20;;;3.08;;
71296;SDS011;59082;50.658;4.608;2023-03-23T00:15:58;4.63;;;3.28;;
71296;SDS011;59082;50.658;4.608;2023-03-23T00:18:24;5.43;;;3.22;;
71296;SDS011;59082;50.658;4.608;2023-03-23T00:20:56;3.50;;;2.70;;
71296;SDS011;59082;50.658;4.608;2023-03-23T00:23:23;4.00;;;3.30;;
71296;SDS011;59082;50.658;4.608;2023-03-23T00:25:52;3.97;;;3.10;;
71296;SDS011;59082;50.658;4.608;2023-03-23T00:28:22;4.18;;;3.15;;
71296;SDS011;59082;50.658;4.608;2023-03-23T00:30:53;4.57;;;2.90;;
71296;SDS011;59082;50.658;4.608;2023-03-23T00:33:22;3.60;;;2.92;;
71296;SDS011;59082;50.658;4.608;2023-03-23T00:35:49;6.07;;;2.92;;
71296;SDS011;59082;50.658;4.608;2023-03-23T00:38:18;4.32;;;3.28;;
71296;SDS011;59082;50.658;4.608;2023-03-23T00:40:44;6.43;;;2.83;;
71296;SDS011;59082;50.658;4.608;2023-03-23T00:43:12;5.00;;;3.30;;
71296;SDS011;59082;50.658;4.608;2023-03-23T00:45:41;7.50;;;3.10;;
71296;SDS011;59082;50.658;4.608;2023-03-23T00:48:10;10.05;;;4.00;;
71296;SDS011;59082;50.658;4.608;2023-03-23T00:50:39;5.97;;;3.08;;
71296;SDS011;59082;50.658;4.608;2023-03-23T00:53:05;7.37;;;4.10;;
71296;SDS011;59082;50.658;4.608;2023-03-23T00:55:31;3.63;;;2.95;;
71296;SDS011;59082;50.658;4.608;2023-03-23T00:57:56;4.60;;;3.47;;
71296;SDS011;59082;50.658;4.608;2023-03-23T01:00:22;5.47;;;3.40;;
71296;SDS011;59082;50.658;4.608;2023-03-23T01:02:48;6.43;;;3.78;;
71296;SDS011;59082;50.658;4.608;2023-03-23T01:05:16;4.28;;;3.53;;
71296;SDS011;59082;50.658;4.608;2023-03-23T01:07:42;4.33;;;2.90;;
71296;SDS011;59082;50.658;4.608;2023-03-23T01:10:09;4.45;;;3.35;;
71296;SDS011;59082;50.658;4.608;2023-03-23T01:12:38;3.83;;;2.85;;
71296;SDS011;59082;50.658;4.608;2023-03-23T01:15:04;4.43;;;3.47;;
71296;SDS011;59082;50.658;4.608;2023-03-23T01:17:31;4.65;;;3.35;;
71296;SDS011;59082;50.658;4.608;2023-03-23T01:19:56;5.83;;;4.00;;
71296;SDS011;59082;50.658;4.608;2023-03-23T01:22:22;4.95;;;3.55;;
71296;SDS011;59082;50.658;4.608;2023-03-23T01:24:48;4.97;;;4.03;;
71296;SDS011;59082;50.658;4.608;2023-03-23T01:27:13;6.78;;;3.40;;
71296;SDS011;59082;50.658;4.608;2023-03-23T01:29:39;4.80;;;3.53;;
71296;SDS011;59082;50.658;4.608;2023-03-23T01:32:05;4.43;;;3.90;;
71296;SDS011;59082;50.658;4.608;2023-03-23T01:34:30;5.00;;;3.92;;
71296;SDS011;59082;50.658;4.608;2023-03-23T01:36:56;3.73;;;3.43;;
71296;SDS011;59082;50.658;4.608;2023-03-23T01:39:22;3.28;;;2.80;;
71296;SDS011;59082;50.658;4.608;2023-03-23T01:41:48;6.37;;;3.00;;
71296;SDS011;59082;50.658;4.608;2023-03-23T01:46:42;4.57;;;3.40;;
71296;SDS011;59082;50.658;4.608;2023-03-23T01:49:11;3.22;;;2.50;;
71296;SDS011;59082;50.658;4.608;2023-03-23T01:52:01;3.67;;;3.13;;
71296;SDS011;59082;50.658;4.608;2023-03-23T01:54:30;4.15;;;3.17;;
71296;SDS011;59082;50.658;4.608;2023-03-23T01:57:01;3.05;;;2.75;;
71296;SDS011;59082;50.658;4.608;2023-03-23T01:59:29;3.08;;;2.55;;
71296;SDS011;59082;50.658;4.608;2023-03-23T02:01:57;3.90;;;2.03;;
71296;SDS011;59082;50.658;4.608;2023-03-23T02:04:23;4.43;;;1.63;;
71296;SDS011;59082;50.658;4.608;2023-03-23T02:06:53;3.83;;;2.03;;
71296;SDS011;59082;50.658;4.608;2023-03-23T02:09:21;3.83;;;2.42;;
71296;SDS011;59082;50.658;4.608;2023-03-23T02:11:47;3.00;;;2.80;;
71296;SDS011;59082;50.658;4.608;2023-03-23T02:14:15;3.70;;;2.50;;
71296;SDS011;59082;50.658;4.608;2023-03-23T02:25:44;4.50;;;2.25;;
71296;SDS011;59082;50.658;4.608;2023-03-23T02:36:46;3.20;;;2.10;;
71296;SDS011;59082;50.658;4.608;2023-03-23T02:41:47;3.83;;;1.80;;
71296;SDS011;59082;50.658;4.608;2023-03-23T02:44:19;2.40;;;1.88;;
71296;SDS011;59082;50.658;4.608;2023-03-23T02:46:48;3.97;;;2.13;;
71296;SDS011;59082;50.658;4.608;2023-03-23T02:49:15;3.65;;;2.00;;
71296;SDS011;59082;50.658;4.608;2023-03-23T02:51:43;3.35;;;2.45;;
71296;SDS011;59082;50.658;4.608;2023-03-23T02:54:11;3.73;;;2.07;;
71296;SDS011;59082;50.658;4.608;2023-03-23T02:56:38;2.58;;;1.83;;
71296;SDS011;59082;50.658;4.608;2023-03-23T02:59:05;2.88;;;2.15;;
71296;SDS011;59082;50.658;4.608;2023-03-23T03:03:57;3.22;;;2.30;;
71296;SDS011;59082;50.658;4.608;2023-03-23T03:09:03;2.10;;;1.85;;
71296;SDS011;59082;50.658;4.608;2023-03-23T03:11:37;3.40;;;2.10;;
71296;SDS011;59082;50.658;4.608;2023-03-23T03:14:13;2.30;;;2.10;;
71296;SDS011;59082;50.658;4.608;2023-03-23T03:16:53;2.47;;;1.98;;
71296;SDS011;59082;50.658;4.608;2023-03-23T03:22:04;4.68;;;1.98;;
71296;SDS011;59082;50.658;4.608;2023-03-23T03:24:33;4.03;;;2.50;;
71296;SDS011;59082;50.658;4.608;2023-03-23T03:27:00;4.53;;;2.67;;
71296;SDS011;59082;50.658;4.608;2023-03-23T03:29:29;4.32;;;1.85;;
71296;SDS011;59082;50.658;4.608;2023-03-23T03:31:58;4.57;;;2.35;;
71296;SDS011;59082;50.658;4.608;2023-03-23T03:34:25;2.70;;;1.80;;
71296;SDS011;59082;50.658;4.608;2023-03-23T03:36:51;3.30;;;2.20;;
71296;SDS011;59082;50.658;4.608;2023-03-23T03:39:20;3.00;;;2.10;;
71296;SDS011;59082;50.658;4.608;2023-03-23T03:41:46;3.53;;;1.70;;
71296;SDS011;59082;50.658;4.608;2023-03-23T03:44:13;3.80;;;2.13;;
71296;SDS011;59082;50.658;4.608;2023-03-23T03:46:39;3.28;;;2.50;;
71296;SDS011;59082;50.658;4.608;2023-03-23T03:49:05;3.90;;;2.47;;
71296;SDS011;59082;50.658;4.608;2023-03-23T03:51:33;2.50;;;2.08;;
71296;SDS011;59082;50.658;4.608;2023-03-23T03:54:00;4.50;;;2.10;;
71296;SDS011;59082;50.658;4.608;2023-03-23T03:56:26;2.43;;;2.10;;
71296;SDS011;59082;50.658;4.608;2023-03-23T03:58:52;4.20;;;1.42;;
71296;SDS011;59082;50.658;4.608;2023-03-23T04:01:18;2.33;;;1.90;;
71296;SDS011;59082;50.658;4.608;2023-03-23T04:03:48;4.30;;;2.10;;
71296;SDS011;59082;50.658;4.608;2023-03-23T04:06:14;5.50;;;2.00;;
71296;SDS011;59082;50.658;4.608;2023-03-23T04:08:40;2.43;;;1.80;;
71296;SDS011;59082;50.658;4.608;2023-03-23T04:11:07;4.35;;;2.10;;
71296;SDS011;59082;50.658;4.608;2023-03-23T04:13:33;4.75;;;2.65;;
71296;SDS011;59082;50.658;4.608;2023-03-23T04:15:59;2.88;;;1.77;;
71296;SDS011;59082;50.658;4.608;2023-03-23T04:18:25;5.57;;;1.90;;
71296;SDS011;59082;50.658;4.608;2023-03-23T04:20:51;4.93;;;1.48;;
71296;SDS011;59082;50.658;4.608;2023-03-23T04:23:17;5.57;;;1.37;;
71296;SDS011;59082;50.658;4.608;2023-03-23T04:25:48;4.30;;;1.00;;
71296;SDS011;59082;50.658;4.608;2023-03-23T04:28:15;4.93;;;1.90;;
71296;SDS011;59082;50.658;4.608;2023-03-23T04:30:48;2.50;;;1.52;;
71296;SDS011;59082;50.658;4.608;2023-03-23T04:33:18;4.18;;;1.73;;
71296;SDS011;59082;50.658;4.608;2023-03-23T04:35:44;2.97;;;1.03;;
71296;SDS011;59082;50.658;4.608;2023-03-23T04:38:13;2.25;;;0.98;;
71296;SDS011;59082;50.658;4.608;2023-03-23T04:40:41;1.75;;;0.88;;
71296;SDS011;59082;50.658;4.608;2023-03-23T04:43:09;3.60;;;1.23;;
71296;SDS011;59082;50.658;4.608;2023-03-23T04:45:37;3.15;;;0.63;;
71296;SDS011;59082;50.658;4.608;2023-03-23T04:48:06;1.97;;;0.87;;
71296;SDS011;59082;50.658;4.608;2023-03-23T04:50:33;3.10;;;1.10;;
71296;SDS011;59082;50.658;4.608;2023-03-23T04:53:02;3.42;;;1.52;;
71296;SDS011;59082;50.658;4.608;2023-03-23T04:55:29;5.03;;;1.35;;
71296;SDS011;59082;50.658;4.608;2023-03-23T04:57:56;2.42;;;1.67;;
71296;SDS011;59082;50.658;4.608;2023-03-23T05:00:25;2.47;;;1.57;;
71296;SDS011;59082;50.658;4.608;2023-03-23T05:02:50;4.38;;;1.48;;
71296;SDS011;59082;50.658;4.608;2023-03-23T05:05:16;2.42;;;1.30;;
71296;SDS011;59082;50.658;4.608;2023-03-23T05:07:43;3.53;;;1.20;;
71296;SDS011;59082;50.658;4.608;2023-03-23T05:10:10;2.13;;;1.58;;
71296;SDS011;59082;50.658;4.608;2023-03-23T05:12:37;1.65;;;1.30;;
71296;SDS011;59082;50.658;4.608;2023-03-23T05:15:03;3.53;;;1.70;;
71296;SDS011;59082;50.658;4.608;2023-03-23T05:17:29;5.32;;;1.13;;
71296;SDS011;59082;50.658;4.608;2023-03-23T05:19:55;4.88;;;1.90;;
71296;SDS011;59082;50.658;4.608;2023-03-23T05:22:22;3.80;;;2.10;;
71296;SDS011;59082;50.658;4.608;2023-03-23T05:24:48;3.03;;;0.98;;
71296;SDS011;59082;50.658;4.608;2023-03-23T05:27:16;3.87;;;1.57;;
71296;SDS011;59082;50.658;4.608;2023-03-23T05:29:43;2.20;;;1.42;;
71296;SDS011;59082;50.658;4.608;2023-03-23T05:32:11;3.08;;;1.45;;
71296;SDS011;59082;50.658;4.608;2023-03-23T05:34:36;2.95;;;1.77;;
71296;SDS011;59082;50.658;4.608;2023-03-23T05:37:02;3.07;;;1.10;;
71296;SDS011;59082;50.658;4.608;2023-03-23T05:39:29;2.70;;;1.30;;
71296;SDS011;59082;50.658;4.608;2023-03-23T05:41:56;3.92;;;1.60;;
71296;SDS011;59082;50.658;4.608;2023-03-23T05:44:21;3.37;;;2.03;;
71296;SDS011;59082;50.658;4.608;2023-03-23T05:46:47;2.28;;;1.40;;
71296;SDS011;59082;50.658;4.608;2023-03-23T05:49:13;1.70;;;1.17;;
71296;SDS011;59082;50.658;4.608;2023-03-23T05:51:41;4.07;;;1.98;;
71296;SDS011;59082;50.658;4.608;2023-03-23T05:54:09;3.28;;;1.33;;
71296;SDS011;59082;50.658;4.608;2023-03-23T05:56:35;3.75;;;1.50;;
71296;SDS011;59082;50.658;4.608;2023-03-23T05:59:01;4.40;;;1.73;;
71296;SDS011;59082;50.658;4.608;2023-03-23T06:01:28;4.33;;;1.57;;
71296;SDS011;59082;50.658;4.608;2023-03-23T06:03:54;4.43;;;2.17;;
71296;SDS011;59082;50.658;4.608;2023-03-23T06:06:26;4.63;;;1.92;;
71296;SDS011;59082;50.658;4.608;2023-03-23T06:08:54;2.17;;;1.33;;
71296;SDS011;59082;50.658;4.608;2023-03-23T06:11:22;5.78;;;1.55;;
71296;SDS011;59082;50.658;4.608;2023-03-23T06:13:48;2.53;;;1.77;;
71296;SDS011;59082;50.658;4.608;2023-03-23T06:16:18;2.67;;;1.73;;
71296;SDS011;59082;50.658;4.608;2023-03-23T06:18:46;4.80;;;1.98;;
71296;SDS011;59082;50.658;4.608;2023-03-23T06:21:14;4.03;;;1.52;;
71296;SDS011;59082;50.658;4.608;2023-03-23T06:23:40;3.65;;;1.58;;
71296;SDS011;59082;50.658;4.608;2023-03-23T06:26:08;2.90;;;1.50;;
71296;SDS011;59082;50.658;4.608;2023-03-23T06:28:35;2.90;;;1.60;;
71296;SDS011;59082;50.658;4.608;2023-03-23T06:31:01;2.85;;;1.60;;
71296;SDS011;59082;50.658;4.608;2023-03-23T06:33:29;4.00;;;2.03;;
71296;SDS011;59082;50.658;4.608;2023-03-23T06:35:55;2.95;;;1.60;;
71296;SDS011;59082;50.658;4.608;2023-03-23T06:38:21;3.05;;;1.88;;
71296;SDS011;59082;50.658;4.608;2023-03-23T06:40:46;3.43;;;1.30;;
71296;SDS011;59082;50.658;4.608;2023-03-23T06:43:13;5.10;;;1.58;;
71296;SDS011;59082;50.658;4.608;2023-03-23T06:45:39;3.07;;;2.00;;
71296;SDS011;59082;50.658;4.608;2023-03-23T06:48:05;1.88;;;1.38;;
71296;SDS011;59082;50.658;4.608;2023-03-23T06:50:31;3.15;;;2.05;;
71296;SDS011;59082;50.658;4.608;2023-03-23T06:52:57;2.40;;;1.23;;
71296;SDS011;59082;50.658;4.608;2023-03-23T06:55:23;4.57;;;1.17;;
71296;SDS011;59082;50.658;4.608;2023-03-23T06:57:48;4.63;;;1.33;;
71296;SDS011;59082;50.658;4.608;2023-03-23T07:00:14;2.55;;;1.02;;
71296;SDS011;59082;50.658;4.608;2023-03-23T07:02:40;2.63;;;1.37;;
71296;SDS011;59082;50.658;4.608;2023-03-23T07:05:07;2.75;;;0.70;;
71296;SDS011;59082;50.658;4.608;2023-03-23T07:07:37;3.08;;;1.60;;
71296;SDS011;59082;50.658;4.608;2023-03-23T07:10:04;3.72;;;1.05;;
71296;SDS011;59082;50.658;4.608;2023-03-23T07:12:31;3.72;;;1.02;;
71296;SDS011;59082;50.658;4.608;2023-03-23T07:14:58;5.33;;;0.97;;
71296;SDS011;59082;50.658;4.608;2023-03-23T07:17:24;3.53;;;1.00;;
71296;SDS011;59082;50.658;4.608;2023-03-23T07:19:50;3.97;;;1.00;;
71296;SDS011;59082;50.658;4.608;2023-03-23T07:22:16;7.77;;;1.63;;
71296;SDS011;59082;50.658;4.608;2023-03-23T07:24:41;4.20;;;1.55;;
71296;SDS011;59082;50.658;4.608;2023-03-23T07:27:07;5.68;;;1.30;;
71296;SDS011;59082;50.658;4.608;2023-03-23T07:29:34;4.88;;;1.73;;
71296;SDS011;59082;50.658;4.608;2023-03-23T07:32:01;3.03;;;1.20;;
71296;SDS011;59082;50.658;4.608;2023-03-23T07:34:27;4.60;;;1.23;;
71296;SDS011;59082;50.658;4.608;2023-03-23T07:36:53;3.28;;;1.67;;
71296;SDS011;59082;50.658;4.608;2023-03-23T07:39:18;2.08;;;1.13;;
71296;SDS011;59082;50.658;4.608;2023-03-23T07:41:44;3.87;;;1.30;;
71296;SDS011;59082;50.658;4.608;2023-03-23T07:44:10;4.90;;;1.83;;
71296;SDS011;59082;50.658;4.608;2023-03-23T07:46:35;4.00;;;1.43;;
71296;SDS011;59082;50.658;4.608;2023-03-23T07:49:01;5.18;;;1.80;;
71296;SDS011;59082;50.658;4.608;2023-03-23T07:51:31;2.23;;;1.40;;
71296;SDS011;59082;50.658;4.608;2023-03-23T07:53:57;3.78;;;1.20;;
71296;SDS011;59082;50.658;4.608;2023-03-23T07:56:23;7.63;;;1.95;;
71296;SDS011;59082;50.658;4.608;2023-03-23T07:58:49;4.93;;;1.47;;
71296;SDS011;59082;50.658;4.608;2023-03-23T08:01:14;2.58;;;1.33;;
71296;SDS011;59082;50.658;4.608;2023-03-23T08:03:40;3.70;;;1.77;;
71296;SDS011;59082;50.658;4.608;2023-03-23T08:06:07;2.77;;;1.83;;
71296;SDS011;59082;50.658;4.608;2023-03-23T08:08:33;5.38;;;1.88;;
71296;SDS011;59082;50.658;4.608;2023-03-23T08:10:59;5.43;;;2.70;;
71296;SDS011;59082;50.658;4.608;2023-03-23T08:13:25;6.23;;;2.50;;
71296;SDS011;59082;50.658;4.608;2023-03-23T08:15:50;3.47;;;0.98;;
71296;SDS011;59082;50.658;4.608;2023-03-23T08:18:16;3.70;;;1.10;;
71296;SDS011;59082;50.658;4.608;2023-03-23T08:20:42;1.67;;;0.60;;
71296;SDS011;59082;50.658;4.608;2023-03-23T08:23:09;5.25;;;1.23;;
71296;SDS011;59082;50.658;4.608;2023-03-23T08:25:35;1.80;;;1.13;;
71296;SDS011;59082;50.658;4.608;2023-03-23T08:28:02;2.58;;;1.58;;
71296;SDS011;59082;50.658;4.608;2023-03-23T08:30:28;4.63;;;1.57;;
71296;SDS011;59082;50.658;4.608;2023-03-23T08:32:56;2.65;;;1.30;;
71296;SDS011;59082;50.658;4.608;2023-03-23T08:35:22;2.85;;;0.82;;
71296;SDS011;59082;50.658;4.608;2023-03-23T08:37:49;3.38;;;1.70;;
71296;SDS011;59082;50.658;4.608;2023-03-23T08:40:20;2.38;;;2.08;;
71296;SDS011;59082;50.658;4.608;2023-03-23T08:42:48;3.40;;;2.00;;
71296;SDS011;59082;50.658;4.608;2023-03-23T08:45:18;3.72;;;1.40;;
71296;SDS011;59082;50.658;4.608;2023-03-23T08:47:46;2.55;;;1.40;;
71296;SDS011;59082;50.658;4.608;2023-03-23T08:50:16;2.35;;;1.42;;
71296;SDS011;59082;50.658;4.608;2023-03-23T08:52:44;2.63;;;1.42;;
71296;SDS011;59082;50.658;4.608;2023-03-23T08:55:10;1.80;;;1.30;;
71296;SDS011;59082;50.658;4.608;2023-03-23T08:57:36;2.30;;;1.75;;
71296;SDS011;59082;50.658;4.608;2023-03-23T09:00:04;4.47;;;1.88;;
71296;SDS011;59082;50.658;4.608;2023-03-23T09:02:42;2.17;;;1.70;;
71296;SDS011;59082;50.658;4.608;2023-03-23T09:05:09;2.40;;;1.40;;
71296;SDS011;59082;50.658;4.608;2023-03-23T09:07:37;1.25;;;1.13;;
71296;SDS011;59082;50.658;4.608;2023-03-23T09:10:03;1.90;;;1.15;;
71296;SDS011;59082;50.658;4.608;2023-03-23T09:12:29;1.88;;;1.10;;
71296;SDS011;59082;50.658;4.608;2023-03-23T09:14:55;3.93;;;1.90;;
71296;SDS011;59082;50.658;4.608;2023-03-23T09:17:22;2.47;;;1.67;;
71296;SDS011;59082;50.658;4.608;2023-03-23T09:19:47;3.53;;;1.92;;
71296;SDS011;59082;50.658;4.608;2023-03-23T09:22:13;3.13;;;1.93;;
71296;SDS011;59082;50.658;4.608;2023-03-23T09:24:40;4.25;;;1.65;;
71296;SDS011;59082;50.658;4.608;2023-03-23T09:27:06;3.47;;;1.90;;
71296;SDS011;59082;50.658;4.608;2023-03-23T09:29:31;4.57;;;1.67;;
71296;SDS011;59082;50.658;4.608;2023-03-23T09:31:57;2.03;;;1.30;;
71296;SDS011;59082;50.658;4.608;2023-03-23T09:34:23;3.20;;;1.38;;
71296;SDS011;59082;50.658;4.608;2023-03-23T09:36:49;2.60;;;1.30;;
71296;SDS011;59082;50.658;4.608;2023-03-23T09:39:15;2.63;;;1.20;;
71296;SDS011;59082;50.658;4.608;2023-03-23T09:44:14;12.75;;;7.40;;
71296;SDS011;59082;50.658;4.608;2023-03-23T09:50:15;4.72;;;2.78;;
71296;SDS011;59082;50.658;4.608;2023-03-23T09:55:16;5.93;;;1.20;;
71296;SDS011;59082;50.658;4.608;2023-03-23T10:00:29;4.03;;;1.87;;
71296;SDS011;59082;50.658;4.608;2023-03-23T10:03:06;2.30;;;2.05;;
71296;SDS011;59082;50.658;4.608;2023-03-23T10:05:44;3.72;;;2.50;;
71296;SDS011;59082;50.658;4.608;2023-03-23T10:08:11;5.32;;;2.53;;
71296;SDS011;59082;50.658;4.608;2023-03-23T10:16:02;7.07;;;3.50;;
71296;SDS011;59082;50.658;4.608;2023-03-23T10:18:36;5.45;;;3.30;;
71296;SDS011;59082;50.658;4.608;2023-03-23T10:21:06;4.50;;;2.50;;
71296;SDS011;59082;50.658;4.608;2023-03-23T10:26:33;5.97;;;4.40;;
71296;SDS011;59082;50.658;4.608;2023-03-23T10:29:09;6.70;;;3.95;;
71296;SDS011;59082;50.658;4.608;2023-03-23T10:31:38;5.15;;;3.55;;
71296;SDS011;59082;50.658;4.608;2023-03-23T10:34:19;6.20;;;2.95;;
71296;SDS011;59082;50.658;4.608;2023-03-23T10:39:53;5.70;;;2.50;;
71296;SDS011;59082;50.658;4.608;2023-03-23T10:42:31;10.07;;;3.15;;
71296;SDS011;59082;50.658;4.608;2023-03-23T10:45:10;7.32;;;3.25;;
71296;SDS011;59082;50.658;4.608;2023-03-23T10:47:41;5.50;;;2.63;;
71296;SDS011;59082;50.658;4.608;2023-03-23T10:50:14;6.63;;;3.53;;
71296;SDS011;59082;50.658;4.608;2023-03-23T10:52:42;6.10;;;3.47;;
71296;SDS011;59082;50.658;4.608;2023-03-23T10:55:22;7.05;;;4.03;;
71296;SDS011;59082;50.658;4.608;2023-03-23T10:58:00;7.25;;;4.35;;
71296;SDS011;59082;50.658;4.608;2023-03-23T11:00:28;7.70;;;4.93;;
71296;SDS011;59082;50.658;4.608;2023-03-23T11:05:25;4.97;;;3.73;;
71296;SDS011;59082;50.658;4.608;2023-03-23T11:07:57;6.35;;;3.13;;
71296;SDS011;59082;50.658;4.608;2023-03-23T11:12:57;11.30;;;4.10;;
71296;SDS011;59082;50.658;4.608;2023-03-23T11:15:28;5.57;;;3.42;;
71296;SDS011;59082;50.658;4.608;2023-03-23T11:18:21;9.80;;;4.13;;
71296;SDS011;59082;50.658;4.608;2023-03-23T11:20:50;6.05;;;3.15;;
71296;SDS011;59082;50.658;4.608;2023-03-23T11:23:27;7.03;;;3.95;;
71296;SDS011;59082;50.658;4.608;2023-03-23T11:26:15;4.85;;;3.25;;
71296;SDS011;59082;50.658;4.608;2023-03-23T11:31:36;6.63;;;3.27;;
71296;SDS011;59082;50.658;4.608;2023-03-23T11:34:10;5.80;;;2.60;;
71296;SDS011;59082;50.658;4.608;2023-03-23T11:36:59;6.47;;;3.05;;
71296;SDS011;59082;50.658;4.608;2023-03-23T11:39:34;5.13;;;2.05;;
71296;SDS011;59082;50.658;4.608;2023-03-23T11:42:12;4.53;;;2.42;;
71296;SDS011;59082;50.658;4.608;2023-03-23T11:44:44;7.23;;;2.67;;
71296;SDS011;59082;50.658;4.608;2023-03-23T11:55:24;9.15;;;2.75;;
71296;SDS011;59082;50.658;4.608;2023-03-23T11:57:54;7.27;;;4.20;;
71296;SDS011;59082;50.658;4.608;2023-03-23T12:00:25;7.00;;;4.57;;
71296;SDS011;59082;50.658;4.608;2023-03-23T12:06:00;5.82;;;2.70;;
71296;SDS011;59082;50.658;4.608;2023-03-23T12:08:45;6.43;;;3.83;;
71296;SDS011;59082;50.658;4.608;2023-03-23T12:33:53;3.60;;;1.45;;
71296;SDS011;59082;50.658;4.608;2023-03-23T12:41:54;6.82;;;2.30;;
71296;SDS011;59082;50.658;4.608;2023-03-23T12:44:42;4.10;;;2.10;;
71296;SDS011;59082;50.658;4.608;2023-03-23T12:47:18;4.20;;;2.20;;
71296;SDS011;59082;50.658;4.608;2023-03-23T12:49:59;7.28;;;2.20;;
71296;SDS011;59082;50.658;4.608;2023-03-23T12:53:02;15.43;;;2.93;;
71296;SDS011;59082;50.658;4.608;2023-03-23T12:58:44;6.65;;;3.45;;
71296;SDS011;59082;50.658;4.608;2023-03-23T13:01:14;6.03;;;2.83;;
71296;SDS011;59082;50.658;4.608;2023-03-23T13:03:59;7.38;;;3.42;;
71296;SDS011;59082;50.658;4.608;2023-03-23T13:06:35;7.17;;;3.00;;
71296;SDS011;59082;50.658;4.608;2023-03-23T13:11:41;6.93;;;2.30;;
71296;SDS011;59082;50.658;4.608;2023-03-23T13:14:26;7.28;;;2.78;;
71296;SDS011;59082;50.658;4.608;2023-03-23T13:17:16;7.32;;;2.53;;
71296;SDS011;59082;50.658;4.608;2023-03-23T13:28:04;5.75;;;3.15;;
71296;SDS011;59082;50.658;4.608;2023-03-23T13:30:31;7.32;;;2.05;;
71296;SDS011;59082;50.658;4.608;2023-03-23T13:33:05;11.00;;;1.70;;
71296;SDS011;59082;50.658;4.608;2023-03-23T13:35:36;3.95;;;1.58;;
71296;SDS011;59082;50.658;4.608;2023-03-23T13:38:11;5.95;;;2.58;;
71296;SDS011;59082;50.658;4.608;2023-03-23T13:40:43;4.78;;;1.23;;
71296;SDS011;59082;50.658;4.608;2023-03-23T13:43:10;5.80;;;1.90;;
71296;SDS011;59082;50.658;4.608;2023-03-23T13:45:42;6.30;;;1.77;;
71296;SDS011;59082;50.658;4.608;2023-03-23T13:50:48;5.78;;;2.33;;
71296;SDS011;59082;50.658;4.608;2023-03-23T13:53:25;6.32;;;2.05;;
71296;SDS011;59082;50.658;4.608;2023-03-23T13:58:47;4.90;;;2.03;;
71296;SDS011;59082;50.658;4.608;2023-03-23T14:01:19;5.68;;;2.65;;
71296;SDS011;59082;50.658;4.608;2023-03-23T14:04:15;9.68;;;3.67;;
71296;SDS011;59082;50.658;4.608;2023-03-23T14:06:43;4.70;;;1.80;;
71296;SDS011;59082;50.658;4.608;2023-03-23T14:11:58;6.78;;;2.15;;
71296;SDS011;59082;50.658;4.608;2023-03-23T14:14:34;6.50;;;2.45;;
71296;SDS011;59082;50.658;4.608;2023-03-23T14:19:32;9.13;;;2.13;;
71296;SDS011;59082;50.658;4.608;2023-03-23T14:21:59;6.90;;;2.28;;
71296;SDS011;59082;50.658;4.608;2023-03-23T14:24:28;4.65;;;2.72;;
71296;SDS011;59082;50.658;4.608;2023-03-23T14:29:30;7.60;;;2.23;;
71296;SDS011;59082;50.658;4.608;2023-03-23T14:31:57;6.70;;;2.38;;
71296;SDS011;59082;50.658;4.608;2023-03-23T14:34:25;4.65;;;1.67;;
71296;SDS011;59082;50.658;4.608;2023-03-23T14:36:55;7.78;;;1.98;;
71296;SDS011;59082;50.658;4.608;2023-03-23T14:39:29;5.47;;;1.77;;
71296;SDS011;59082;50.658;4.608;2023-03-23T14:42:32;5.90;;;1.80;;
71296;SDS011;59082;50.658;4.608;2023-03-23T14:44:59;5.55;;;1.60;;
71296;SDS011;59082;50.658;4.608;2023-03-23T14:47:32;5.90;;;1.60;;
71296;SDS011;59082;50.658;4.608;2023-03-23T14:50:02;5.35;;;2.08;;
71296;SDS011;59082;50.658;4.608;2023-03-23T14:52:33;5.30;;;2.03;;
71296;SDS011;59082;50.658;4.608;2023-03-23T14:55:34;4.33;;;1.67;;
71296;SDS011;59082;50.658;4.608;2023-03-23T14:57:55;4.95;;;2.40;;
71296;SDS011;59082;50.658;4.608;2023-03-23T15:00:33;3.95;;;1.65;;
71296;SDS011;59082;50.658;4.608;2023-03-23T15:03:03;8.82;;;1.77;;
71296;SDS011;59082;50.658;4.608;2023-03-23T15:05:32;3.40;;;1.05;;
71296;SDS011;59082;50.658;4.608;2023-03-23T15:08:05;4.63;;;1.40;;
71296;SDS011;59082;50.658;4.608;2023-03-23T15:10:33;6.28;;;1.75;;
71296;SDS011;59082;50.658;4.608;2023-03-23T15:13:00;4.15;;;1.55;;
71296;SDS011;59082;50.658;4.608;2023-03-23T15:15:29;6.37;;;2.00;;
71296;SDS011;59082;50.658;4.608;2023-03-23T15:17:57;7.28;;;2.00;;
71296;SDS011;59082;50.658;4.608;2023-03-23T15:20:45;9.55;;;2.53;;
71296;SDS011;59082;50.658;4.608;2023-03-23T15:23:14;3.58;;;1.63;;
71296;SDS011;59082;50.658;4.608;2023-03-23T15:25:47;6.72;;;2.05;;
71296;SDS011;59082;50.658;4.608;2023-03-23T15:28:22;5.37;;;2.20;;
71296;SDS011;59082;50.658;4.608;2023-03-23T15:30:55;7.10;;;2.38;;
71296;SDS011;59082;50.658;4.608;2023-03-23T15:33:23;5.18;;;2.25;;
71296;SDS011;59082;50.658;4.608;2023-03-23T15:35:53;6.82;;;2.20;;
71296;SDS011;59082;50.658;4.608;2023-03-23T15:40:55;4.90;;;2.53;;
71296;SDS011;59082;50.658;4.608;2023-03-23T15:43:31;7.00;;;1.88;;
71296;SDS011;59082;50.658;4.608;2023-03-23T15:48:31;5.43;;;1.85;;
71296;SDS011;59082;50.658;4.608;2023-03-23T15:50:58;10.52;;;1.90;;
71296;SDS011;59082;50.658;4.608;2023-03-23T15:53:34;7.93;;;1.87;;
71296;SDS011;59082;50.658;4.608;2023-03-23T15:56:04;6.95;;;2.22;;
71296;SDS011;59082;50.658;4.608;2023-03-23T15:58:32;5.53;;;2.38;;
71296;SDS011;59082;50.658;4.608;2023-03-23T16:00:59;4.97;;;2.15;;
71296;SDS011;59082;50.658;4.608;2023-03-23T16:03:29;6.75;;;1.70;;
71296;SDS011;59082;50.658;4.608;2023-03-23T16:06:21;7.10;;;2.57;;
71296;SDS011;59082;50.658;4.608;2023-03-23T16:08:48;4.22;;;1.27;;
71296;SDS011;59082;50.658;4.608;2023-03-23T16:11:15;8.05;;;2.20;;
71296;SDS011;59082;50.658;4.608;2023-03-23T16:13:41;3.08;;;1.55;;
71296;SDS011;59082;50.658;4.608;2023-03-23T16:16:12;4.90;;;2.00;;
71296;SDS011;59082;50.658;4.608;2023-03-23T16:18:41;7.97;;;2.25;;
71296;SDS011;59082;50.658;4.608;2023-03-23T16:21:06;6.65;;;2.45;;
71296;SDS011;59082;50.658;4.608;2023-03-23T16:23:32;3.67;;;1.83;;
71296;SDS011;59082;50.658;4.608;2023-03-23T16:25:58;5.90;;;1.92;;
71296;SDS011;59082;50.658;4.608;2023-03-23T16:28:23;5.83;;;1.87;;
71296;SDS011;59082;50.658;4.608;2023-03-23T16:30:49;4.40;;;1.27;;
71296;SDS011;59082;50.658;4.608;2023-03-23T16:33:15;5.33;;;1.77;;
71296;SDS011;59082;50.658;4.608;2023-03-23T16:35:40;3.70;;;1.23;;
71296;SDS011;59082;50.658;4.608;2023-03-23T16:38:09;8.90;;;1.80;;
71296;SDS011;59082;50.658;4.608;2023-03-23T16:40:40;7.35;;;1.92;;
71296;SDS011;59082;50.658;4.608;2023-03-23T16:43:11;7.78;;;2.15;;
71296;SDS011;59082;50.658;4.608;2023-03-23T16:45:38;5.22;;;1.67;;
71296;SDS011;59082;50.658;4.608;2023-03-23T16:48:06;5.13;;;1.75;;
71296;SDS011;59082;50.658;4.608;2023-03-23T16:50:32;6.93;;;1.70;;
71296;SDS011;59082;50.658;4.608;2023-03-23T16:52:59;4.53;;;1.48;;
71296;SDS011;59082;50.658;4.608;2023-03-23T16:55:25;8.48;;;2.17;;
71296;SDS011;59082;50.658;4.608;2023-03-23T16:57:51;5.78;;;2.17;;
71296;SDS011;59082;50.658;4.608;2023-03-23T17:00:17;6.13;;;2.40;;
71296;SDS011;59082;50.658;4.608;2023-03-23T17:02:48;4.32;;;1.75;;
71296;SDS011;59082;50.658;4.608;2023-03-23T17:05:16;9.10;;;2.08;;
71296;SDS011;59082;50.658;4.608;2023-03-23T17:07:44;4.82;;;1.80;;
71296;SDS011;59082;50.658;4.608;2023-03-23T17:10:10;6.05;;;2.10;;
71296;SDS011;59082;50.658;4.608;2023-03-23T17:12:37;7.37;;;2.10;;